createdAt,value
2023-02-17T00:01:32.383Z,1.00
2023-02-17T00:04:00.368Z,1.08
2023-02-17T00:06:30.729Z,1.10
2023-02-17T00:08:59.634Z,0.90
2023-02-17T00:11:28.592Z,1.10
2023-02-17T00:13:56.564Z,1.08
2023-02-17T00:16:26.635Z,1.00
2023-02-17T00:19:02.094Z,0.80
2023-02-17T00:21:31.786Z,0.80
2023-02-17T00:23:59.550Z,1.30
2023-02-17T00:26:26.780Z,1.10
2023-02-17T00:28:53.656Z,1.00
2023-02-17T00:31:22.874Z,1.30
2023-02-17T00:33:50.257Z,1.02
2023-02-17T00:36:20.077Z,1.15
2023-02-17T00:38:48.778Z,1.23
2023-02-17T00:41:17.546Z,1.00
2023-02-17T00:43:45.405Z,1.15
2023-02-17T00:46:12.427Z,1.10
2023-02-17T00:48:39.515Z,1.10
2023-02-17T00:51:07.134Z,1.02
2023-02-17T00:53:34.016Z,1.17
2023-02-17T00:56:01.004Z,1.20
2023-02-17T00:58:28.223Z,1.08
2023-02-17T01:00:58.754Z,0.95
2023-02-17T01:03:27.008Z,1.00
2023-02-17T01:05:55.442Z,1.13
2023-02-17T01:08:24.432Z,1.10
2023-02-17T01:10:52.800Z,1.20
2023-02-17T01:13:20.222Z,1.20
2023-02-17T01:15:52.547Z,1.15
2023-02-17T01:18:23.168Z,1.10
2023-02-17T01:20:50.173Z,0.80
2023-02-17T01:23:17.663Z,1.10
2023-02-17T01:25:47.082Z,1.27
2023-02-17T01:28:21.360Z,0.80
2023-02-17T01:30:49.843Z,1.10
2023-02-17T01:33:16.801Z,0.90
2023-02-17T01:35:43.774Z,0.80
2023-02-17T01:38:10.980Z,0.90
2023-02-17T01:40:37.863Z,0.70
2023-02-17T01:43:06.507Z,0.75
2023-02-17T01:45:47.226Z,0.80
2023-02-17T01:48:22.177Z,0.73
2023-02-17T01:50:54.853Z,1.05
2023-02-17T01:53:32.428Z,0.80
2023-02-17T01:55:59.467Z,0.80
2023-02-17T01:58:28.442Z,0.90
2023-02-17T02:00:58.468Z,0.75
2023-02-17T02:03:26.855Z,0.75
2023-02-17T02:05:53.654Z,0.60
2023-02-17T02:08:20.505Z,0.50
2023-02-17T02:10:47.379Z,0.40
2023-02-17T02:13:14.553Z,0.50
2023-02-17T02:16:02.506Z,0.40
2023-02-17T02:19:29.425Z,0.40
2023-02-17T02:22:26.770Z,0.30
2023-02-17T02:25:30.878Z,0.40
2023-02-17T02:28:27.111Z,0.30
2023-02-17T02:31:11.486Z,0.35
2023-02-17T02:33:48.221Z,0.40
2023-02-17T02:36:52.372Z,0.30
2023-02-17T02:39:29.361Z,0.22
2023-02-17T02:42:03.548Z,0.68
2023-02-17T02:44:30.929Z,0.50
2023-02-17T02:47:07.899Z,0.30
2023-02-17T02:49:36.912Z,0.50
2023-02-17T02:52:33.777Z,0.40
2023-02-17T02:55:20.903Z,0.40
2023-02-17T02:58:22.795Z,0.50
2023-02-17T03:00:58.233Z,0.30
2023-02-17T03:03:37.748Z,0.40
2023-02-17T03:06:16.021Z,0.52
2023-02-17T03:09:17.605Z,0.45
2023-02-17T03:11:45.750Z,0.50
2023-02-17T03:14:17.598Z,0.30
2023-02-17T03:16:46.914Z,0.20
2023-02-17T03:19:15.585Z,0.40
2023-02-17T03:21:52.489Z,0.50
2023-02-17T03:24:19.782Z,0.30
2023-02-17T03:26:46.674Z,0.30
2023-02-17T03:29:13.601Z,0.28
2023-02-17T03:31:40.868Z,0.40
2023-02-17T03:34:08.616Z,0.30
2023-02-17T03:36:35.462Z,0.20
2023-02-17T03:39:02.373Z,0.28
2023-02-17T03:41:29.418Z,0.30
2023-02-17T03:43:56.239Z,0.22
2023-02-17T03:46:23.004Z,0.40
2023-02-17T03:48:50.153Z,0.30
2023-02-17T03:51:23.736Z,0.28
2023-02-17T03:53:51.520Z,0.40
2023-02-17T03:56:19.459Z,0.30
2023-02-17T03:58:46.319Z,0.30
2023-02-17T04:01:14.699Z,0.30
2023-02-17T04:03:42.676Z,0.40
2023-02-17T04:06:10.752Z,0.20
2023-02-17T04:08:39.023Z,0.20
2023-02-17T04:11:08.554Z,0.30
2023-02-17T04:13:35.996Z,0.40
2023-02-17T04:16:04.847Z,0.30
2023-02-17T04:18:32.554Z,0.30
2023-02-17T04:20:59.513Z,0.40
2023-02-17T04:23:26.377Z,0.20
2023-02-17T04:25:53.411Z,0.30
2023-02-17T04:28:21.591Z,0.22
2023-02-17T04:30:50.783Z,0.30
2023-02-17T04:33:18.317Z,0.38
2023-02-17T04:35:45.505Z,0.55
2023-02-17T04:38:12.322Z,0.30
2023-02-17T04:40:40.372Z,0.30
2023-02-17T04:43:08.642Z,0.30
2023-02-17T04:45:37.228Z,0.47
2023-02-17T04:48:04.676Z,0.40
2023-02-17T04:50:31.659Z,0.40
2023-02-17T04:52:58.823Z,0.30
2023-02-17T04:55:25.725Z,0.20
2023-02-17T04:57:52.622Z,0.30
2023-02-17T05:00:20.015Z,0.30
2023-02-17T05:02:46.855Z,0.17
2023-02-17T05:05:16.569Z,0.30
2023-02-17T05:07:43.376Z,0.35
2023-02-17T05:10:10.834Z,0.20
2023-02-17T05:12:37.976Z,0.10
2023-02-17T05:15:05.752Z,0.20
2023-02-17T05:17:33.312Z,0.30
2023-02-17T05:20:00.682Z,0.20
2023-02-17T05:22:28.220Z,0.32
2023-02-17T05:24:55.098Z,0.35
2023-02-17T05:27:22.117Z,0.38
2023-02-17T05:29:49.097Z,0.35
2023-02-17T05:32:15.938Z,0.35
2023-02-17T05:34:43.167Z,0.20
2023-02-17T05:37:10.353Z,0.20
2023-02-17T05:39:37.317Z,0.40
2023-02-17T05:42:04.500Z,0.40
2023-02-17T05:44:31.384Z,0.50
2023-02-17T05:46:58.463Z,0.57
2023-02-17T05:49:25.265Z,0.60
2023-02-17T05:51:52.028Z,0.50
2023-02-17T05:54:19.280Z,0.30
2023-02-17T05:56:46.140Z,0.20
2023-02-17T05:59:12.960Z,0.40
2023-02-17T06:01:39.719Z,0.32
2023-02-17T06:04:06.488Z,0.28
2023-02-17T06:06:33.318Z,0.30
2023-02-17T06:09:00.517Z,0.30
2023-02-17T06:11:27.324Z,0.40
2023-02-17T06:13:54.112Z,0.30
2023-02-17T06:16:21.055Z,0.20
2023-02-17T06:18:47.889Z,0.22
2023-02-17T06:21:15.110Z,0.10
2023-02-17T06:23:41.924Z,0.20
2023-02-17T06:26:08.875Z,0.20
2023-02-17T06:28:38.780Z,0.40
2023-02-17T06:31:05.822Z,0.40
2023-02-17T06:33:32.854Z,0.45
2023-02-17T06:36:00.030Z,0.40
2023-02-17T06:38:27.157Z,0.30
2023-02-17T06:40:54.641Z,0.20
2023-02-17T06:43:21.625Z,0.20
2023-02-17T06:45:48.741Z,0.32
2023-02-17T06:48:15.626Z,0.30
2023-02-17T06:50:42.469Z,0.40
2023-02-17T06:53:09.279Z,0.60
2023-02-17T06:55:37.395Z,0.40
2023-02-17T06:58:04.597Z,0.30
2023-02-17T07:00:31.703Z,0.30
2023-02-17T07:02:59.220Z,0.22
2023-02-17T07:05:26.116Z,0.40
2023-02-17T07:07:53.738Z,0.40
2023-02-17T07:10:20.886Z,0.30
2023-02-17T07:12:47.725Z,0.40
2023-02-17T07:15:15.288Z,0.38
2023-02-17T07:17:42.069Z,0.40
2023-02-17T07:20:09.775Z,0.30
2023-02-17T07:22:36.823Z,0.35
2023-02-17T07:25:04.635Z,0.20
2023-02-17T07:27:32.431Z,0.40
2023-02-17T07:29:59.277Z,0.30
2023-02-17T07:32:26.191Z,0.30
2023-02-17T07:34:53.172Z,0.22
2023-02-17T07:37:21.958Z,0.40
2023-02-17T07:39:49.442Z,0.30
2023-02-17T07:42:16.340Z,0.30
2023-02-17T07:44:43.490Z,0.30
2023-02-17T07:47:10.273Z,0.20
2023-02-17T07:49:37.043Z,0.40
2023-02-17T07:52:05.375Z,0.40
2023-02-17T07:54:32.389Z,0.20
2023-02-17T07:56:59.810Z,0.30
2023-02-17T07:59:27.051Z,0.20
2023-02-17T08:01:54.021Z,0.20
2023-02-17T08:04:21.102Z,0.20
2023-02-17T08:06:48.003Z,0.30
2023-02-17T08:09:33.707Z,0.20
2023-02-17T08:12:19.476Z,0.30
2023-02-17T08:14:46.308Z,0.20
2023-02-17T08:17:13.147Z,0.30
2023-02-17T08:19:48.195Z,0.30
2023-02-17T08:22:17.524Z,0.55
2023-02-17T08:24:44.985Z,0.30
2023-02-17T08:27:11.853Z,0.30
2023-02-17T08:29:38.799Z,0.45
2023-02-17T08:32:05.760Z,0.40
2023-02-17T08:34:35.926Z,0.40
2023-02-17T08:37:05.625Z,0.40
2023-02-17T08:39:34.418Z,0.47
2023-02-17T08:42:02.415Z,0.50
2023-02-17T08:44:29.500Z,0.40
2023-02-17T08:46:56.499Z,0.40
2023-02-17T08:49:28.621Z,0.57
2023-02-17T08:51:55.933Z,0.52
2023-02-17T08:54:22.771Z,0.40
2023-02-17T08:56:49.598Z,0.40
2023-02-17T08:59:16.455Z,0.40
2023-02-17T09:01:44.400Z,0.40
2023-02-17T09:04:14.433Z,0.45
2023-02-17T09:06:48.800Z,0.45
2023-02-17T09:09:19.601Z,0.50
2023-02-17T09:11:46.631Z,0.40
2023-02-17T09:14:13.873Z,0.35
2023-02-17T09:16:41.679Z,0.32
2023-02-17T09:19:08.900Z,0.28
2023-02-17T09:21:35.748Z,0.40
2023-02-17T09:24:02.655Z,0.28
2023-02-17T09:26:29.790Z,0.20
2023-02-17T09:28:58.151Z,0.28
2023-02-17T09:31:27.244Z,0.43
2023-02-17T09:33:54.670Z,0.40
2023-02-17T09:36:29.150Z,0.32
2023-02-17T09:38:56.837Z,0.30
2023-02-17T09:41:32.190Z,0.30
2023-02-17T09:43:59.812Z,0.40
2023-02-17T09:46:33.736Z,0.20
2023-02-17T09:49:08.718Z,0.28
2023-02-17T09:52:09.427Z,0.20
2023-02-17T09:55:04.298Z,0.40
2023-02-17T09:57:41.926Z,0.47
2023-02-17T10:00:44.289Z,0.30
2023-02-17T10:03:36.503Z,0.30
2023-02-17T10:06:16.739Z,0.50
2023-02-17T10:09:13.848Z,0.20
2023-02-17T10:11:52.911Z,0.28
2023-02-17T10:14:29.628Z,0.30
2023-02-17T10:17:21.613Z,0.30
2023-02-17T10:19:56.524Z,0.15
2023-02-17T10:22:25.009Z,0.32
2023-02-17T10:24:52.429Z,0.20
2023-02-17T10:27:38.270Z,0.30
2023-02-17T10:30:05.745Z,0.40
2023-02-17T10:32:53.226Z,1.02
2023-02-17T10:35:53.472Z,0.43
2023-02-17T10:38:44.730Z,0.50
2023-02-17T10:41:16.387Z,0.40
2023-02-17T10:43:45.401Z,0.50
2023-02-17T10:46:16.113Z,0.50
2023-02-17T10:48:51.335Z,0.40
2023-02-17T10:51:26.274Z,0.30
2023-02-17T10:54:07.894Z,0.40
2023-02-17T10:56:39.922Z,0.55
2023-02-17T10:59:24.088Z,0.70
2023-02-17T11:01:51.550Z,0.40
2023-02-17T11:04:18.371Z,0.40
2023-02-17T11:06:50.768Z,0.47
2023-02-17T11:09:23.469Z,0.50
2023-02-17T11:12:17.409Z,1.38
2023-02-17T11:14:47.837Z,0.80
2023-02-17T11:17:39.422Z,0.88
2023-02-17T11:20:14.093Z,2.05
2023-02-17T11:23:01.420Z,1.42
2023-02-17T11:25:35.576Z,0.68
2023-02-17T11:28:07.533Z,0.57
2023-02-17T11:30:38.272Z,0.47
2023-02-17T11:33:22.737Z,0.68
2023-02-17T11:35:55.064Z,0.43
2023-02-17T11:38:28.969Z,1.60
2023-02-17T11:41:02.949Z,0.65
2023-02-17T11:43:33.172Z,0.80
2023-02-17T11:46:23.469Z,0.70
2023-02-17T11:49:37.081Z,0.98
2023-02-17T11:52:28.423Z,0.95
2023-02-17T11:55:11.639Z,0.98
2023-02-17T11:57:53.568Z,1.10
2023-02-17T12:00:31.440Z,1.00
2023-02-17T12:03:16.743Z,0.90
2023-02-17T12:06:09.322Z,1.60
2023-02-17T12:08:49.054Z,1.35
2023-02-17T12:11:30.892Z,1.02
2023-02-17T12:14:14.848Z,2.65
2023-02-17T12:16:44.468Z,1.20
2023-02-17T12:19:42.273Z,2.00
2023-02-17T12:22:55.347Z,2.00
2023-02-17T12:25:48.274Z,1.42
2023-02-17T12:28:55.096Z,1.75
2023-02-17T12:31:48.102Z,1.65
2023-02-17T12:34:30.368Z,1.90
2023-02-17T12:36:59.878Z,1.55
2023-02-17T12:39:42.282Z,1.52
2023-02-17T12:42:21.027Z,1.60
2023-02-17T12:45:08.188Z,1.88
2023-02-17T12:47:59.538Z,2.28
2023-02-17T12:50:34.265Z,2.20
2023-02-17T12:53:11.419Z,1.80
2023-02-17T12:55:49.039Z,1.65
2023-02-17T12:58:25.802Z,1.80
2023-02-17T13:01:11.134Z,1.90
2023-02-17T13:03:38.207Z,2.15
2023-02-17T13:06:32.421Z,1.75
2023-02-17T13:09:17.327Z,2.03
2023-02-17T13:11:45.775Z,2.22
2023-02-17T13:14:27.811Z,1.45
2023-02-17T13:16:55.497Z,2.03
2023-02-17T13:19:34.807Z,1.52
2023-02-17T13:22:03.460Z,2.17
2023-02-17T13:24:52.546Z,1.92
2023-02-17T13:27:28.506Z,2.15
2023-02-17T13:30:22.581Z,2.05
2023-02-17T13:33:29.539Z,2.00
2023-02-17T13:35:56.503Z,1.95
2023-02-17T13:38:32.420Z,2.35
2023-02-17T13:41:04.807Z,1.77
2023-02-17T13:43:41.506Z,1.60
2023-02-17T13:46:20.287Z,1.88
2023-02-17T13:48:59.031Z,1.80
2023-02-17T13:51:29.498Z,1.70
2023-02-17T13:53:56.534Z,1.75
2023-02-17T13:56:28.046Z,1.67
2023-02-17T13:59:07.290Z,1.42
2023-02-17T14:01:38.753Z,1.60
2023-02-17T14:04:26.844Z,1.65
2023-02-17T14:06:57.360Z,2.00
2023-02-17T14:09:34.467Z,2.47
2023-02-17T14:12:21.108Z,1.95
2023-02-17T14:14:48.636Z,2.85
2023-02-17T14:17:32.718Z,1.75
2023-02-17T14:20:01.362Z,2.05
2023-02-17T14:22:33.852Z,1.95
2023-02-17T14:25:28.569Z,1.92
2023-02-17T14:27:56.437Z,2.00
2023-02-17T14:30:29.763Z,1.90
2023-02-17T14:33:17.978Z,2.25
2023-02-17T14:36:06.567Z,2.50
2023-02-17T14:38:41.716Z,2.45
2023-02-17T14:41:10.265Z,2.08
2023-02-17T14:43:37.657Z,2.10
2023-02-17T14:46:04.889Z,1.95
2023-02-17T14:48:31.987Z,2.08
2023-02-17T14:50:59.692Z,1.67
2023-02-17T14:53:33.386Z,1.77
2023-02-17T14:56:26.100Z,1.80
2023-02-17T14:58:53.969Z,1.67
2023-02-17T15:01:24.157Z,1.65
2023-02-17T15:03:52.641Z,2.67
2023-02-17T15:06:28.813Z,1.67
2023-02-17T15:08:57.049Z,1.48
2023-02-17T15:11:34.566Z,1.90
2023-02-17T15:14:03.025Z,1.33
2023-02-17T15:16:30.574Z,1.48
2023-02-17T15:18:57.823Z,1.50
2023-02-17T15:21:34.127Z,1.50
2023-02-17T15:24:03.058Z,1.25
2023-02-17T15:26:30.983Z,1.33
2023-02-17T15:28:58.682Z,1.20
2023-02-17T15:31:30.152Z,1.48
2023-02-17T15:34:00.084Z,1.00
2023-02-17T15:36:28.795Z,1.30
2023-02-17T15:38:55.946Z,1.50
2023-02-17T15:41:26.418Z,1.50
2023-02-17T15:43:56.397Z,1.48
2023-02-17T15:46:31.437Z,1.77
2023-02-17T15:51:25.585Z,2.17
2023-02-17T15:53:52.423Z,1.95
2023-02-17T15:56:23.504Z,2.60
2023-02-17T15:58:51.064Z,2.88
2023-02-17T16:01:38.499Z,3.30
2023-02-17T16:04:06.851Z,2.60
2023-02-17T16:06:33.772Z,2.30
2023-02-17T16:09:00.658Z,3.58
2023-02-17T16:11:30.023Z,4.00
2023-02-17T16:13:57.105Z,2.20
2023-02-17T16:16:32.937Z,1.88
2023-02-17T16:19:01.046Z,1.77
2023-02-17T16:21:28.488Z,2.00
2023-02-17T16:23:59.844Z,2.33
2023-02-17T16:26:34.670Z,2.20
2023-02-17T16:29:06.627Z,2.17
2023-02-17T16:31:35.935Z,1.40
2023-02-17T16:34:03.185Z,1.80
2023-02-17T16:36:34.582Z,1.10
2023-02-17T16:39:11.924Z,0.85
2023-02-17T16:41:39.345Z,1.40
2023-02-17T16:44:07.881Z,1.00
2023-02-17T16:46:37.367Z,1.00
2023-02-17T16:49:28.463Z,1.23
2023-02-17T16:51:55.673Z,1.45
2023-02-17T16:54:22.468Z,1.38
2023-02-17T16:56:51.621Z,1.77
2023-02-17T16:59:24.514Z,2.55
2023-02-17T17:01:53.491Z,3.30
2023-02-17T17:04:21.714Z,3.60
2023-02-17T17:06:51.719Z,3.83
2023-02-17T17:09:23.939Z,1.95
2023-02-17T17:11:51.211Z,2.00
2023-02-17T17:14:19.447Z,2.40
2023-02-17T17:16:57.255Z,2.53
2023-02-17T17:19:24.714Z,2.40
2023-02-17T17:21:52.060Z,2.65
2023-02-17T17:24:19.018Z,2.40
2023-02-17T17:26:50.490Z,2.50
2023-02-17T17:29:19.743Z,2.70
2023-02-17T17:31:48.683Z,1.67
2023-02-17T17:34:15.542Z,1.52
2023-02-17T17:36:45.671Z,1.60
2023-02-17T17:39:22.853Z,1.58
2023-02-17T17:41:51.144Z,1.80
2023-02-17T17:44:19.048Z,1.75
2023-02-17T17:46:45.874Z,2.05
2023-02-17T17:49:15.578Z,1.80
2023-02-17T17:51:43.102Z,1.85
2023-02-17T17:54:10.132Z,1.95
2023-02-17T17:56:43.125Z,1.58
2023-02-17T17:59:12.275Z,1.65
2023-02-17T18:01:39.358Z,1.70
2023-02-17T18:04:08.953Z,1.80
2023-02-17T18:06:49.413Z,1.38
2023-02-17T18:09:31.083Z,1.60
2023-02-17T18:12:04.300Z,1.50
2023-02-17T18:14:32.140Z,1.10
2023-02-17T18:16:59.561Z,1.10
2023-02-17T18:19:26.952Z,1.00
2023-02-17T18:21:53.744Z,0.90
2023-02-17T18:24:20.806Z,0.90
2023-02-17T18:26:47.748Z,1.00
2023-02-17T18:29:14.607Z,0.90
2023-02-17T18:31:41.867Z,1.08
2023-02-17T18:34:08.751Z,0.82
2023-02-17T18:36:35.567Z,0.80
2023-02-17T18:39:02.398Z,1.00
2023-02-17T18:41:31.697Z,1.00
2023-02-17T18:44:01.751Z,1.10
2023-02-17T18:46:29.077Z,1.00
2023-02-17T18:48:56.930Z,0.90
2023-02-17T18:51:27.740Z,1.10
2023-02-17T18:53:56.668Z,1.15
2023-02-17T18:56:27.394Z,1.20
2023-02-17T18:58:57.934Z,1.00
2023-02-17T19:01:33.831Z,1.50
2023-02-17T19:04:00.914Z,1.45
2023-02-17T19:06:32.360Z,1.88
2023-02-17T19:09:01.132Z,1.90
2023-02-17T19:11:28.233Z,1.58
2023-02-17T19:13:55.127Z,1.58
2023-02-17T19:16:25.901Z,1.00
2023-02-17T19:18:53.626Z,1.20
2023-02-17T19:21:21.830Z,2.03
2023-02-17T19:23:51.055Z,1.88
2023-02-17T19:26:18.690Z,1.40
2023-02-17T19:28:46.559Z,1.42
2023-02-17T19:31:17.560Z,1.50
2023-02-17T19:33:46.548Z,1.55
2023-02-17T19:36:21.808Z,1.38
2023-02-17T19:38:51.112Z,1.60
2023-02-17T19:41:19.540Z,1.20
2023-02-17T19:43:47.278Z,1.50
2023-02-17T19:46:26.943Z,2.30
2023-02-17T19:48:54.244Z,1.92
2023-02-17T19:51:21.364Z,2.63
2023-02-17T19:53:48.929Z,1.50
2023-02-17T19:56:19.591Z,1.40
2023-02-17T19:58:48.316Z,1.00
2023-02-17T20:01:28.722Z,1.98
2023-02-17T20:03:57.059Z,1.48
2023-02-17T20:06:31.684Z,1.88
2023-02-17T20:09:02.913Z,2.00
2023-02-17T20:11:32.037Z,2.70
2023-02-17T20:14:01.688Z,2.50
2023-02-17T20:16:30.358Z,4.10
2023-02-17T20:18:57.350Z,1.83
2023-02-17T20:21:28.575Z,1.88
2023-02-17T20:23:56.023Z,1.52
2023-02-17T20:26:29.723Z,2.25
2023-02-17T20:28:57.685Z,2.30
2023-02-17T20:31:26.285Z,1.80
2023-02-17T20:33:53.267Z,2.08
2023-02-17T20:36:22.368Z,2.50
2023-02-17T20:38:50.524Z,1.55
2023-02-17T20:41:20.442Z,1.42
2023-02-17T20:43:48.303Z,1.38
2023-02-17T20:46:22.690Z,1.38
2023-02-17T20:48:50.199Z,1.33
2023-02-17T20:51:17.205Z,1.63
2023-02-17T20:53:43.979Z,1.38
2023-02-17T20:56:18.287Z,1.50
2023-02-17T20:58:46.483Z,1.38
2023-02-17T21:01:13.903Z,1.42
2023-02-17T21:03:41.105Z,1.48
2023-02-17T21:06:31.666Z,1.50
2023-02-17T21:09:06.669Z,1.40
2023-02-17T21:11:36.436Z,1.48
2023-02-17T21:14:04.135Z,1.33
2023-02-17T21:16:32.234Z,1.50
2023-02-17T21:19:01.373Z,1.48
2023-02-17T21:21:30.039Z,1.48
2023-02-17T21:23:58.471Z,1.63
2023-02-17T21:26:25.582Z,1.45
2023-02-17T21:28:52.538Z,1.50
2023-02-17T21:31:19.802Z,1.70
2023-02-17T21:33:46.758Z,1.10
2023-02-17T21:36:18.794Z,1.05
2023-02-17T21:38:47.544Z,1.30
2023-02-17T21:41:22.815Z,1.40
2023-02-17T21:44:08.745Z,1.38
2023-02-17T21:46:37.541Z,1.33
2023-02-17T21:49:04.887Z,1.10
2023-02-17T21:51:32.248Z,1.30
2023-02-17T21:53:59.473Z,1.33
2023-02-17T21:56:26.731Z,1.20
2023-02-17T21:58:56.131Z,1.40
2023-02-17T22:01:26.422Z,1.15
2023-02-17T22:03:54.146Z,1.30
2023-02-17T22:06:35.711Z,1.00
2023-02-17T22:09:03.777Z,1.27
2023-02-17T22:11:36.904Z,1.88
2023-02-17T22:14:12.157Z,1.63
2023-02-17T22:16:39.403Z,1.30
2023-02-17T22:19:08.760Z,1.40
2023-02-17T22:21:36.062Z,1.50
2023-02-17T22:24:03.357Z,1.15
2023-02-17T22:26:31.118Z,1.20
2023-02-17T22:28:58.226Z,1.20
2023-02-17T22:31:28.889Z,1.23
2023-02-17T22:33:58.415Z,1.02
2023-02-17T22:36:27.575Z,1.10
2023-02-17T22:38:55.018Z,1.23
2023-02-17T22:41:25.272Z,1.20
2023-02-17T22:43:53.182Z,1.23
2023-02-17T22:46:23.243Z,1.30
2023-02-17T22:48:52.183Z,1.27
2023-02-17T22:51:26.757Z,1.40
2023-02-17T22:53:53.666Z,1.40
2023-02-17T22:56:21.821Z,1.58
2023-02-17T22:58:54.026Z,1.40
2023-02-17T23:01:21.334Z,1.60
2023-02-17T23:03:54.007Z,1.50
2023-02-17T23:06:28.648Z,1.70
2023-02-17T23:08:56.554Z,1.47
2023-02-17T23:11:45.689Z,1.45
2023-02-17T23:14:14.033Z,1.40
2023-02-17T23:16:41.224Z,1.17
2023-02-17T23:19:11.163Z,1.15
2023-02-17T23:21:43.250Z,1.25
2023-02-17T23:24:10.280Z,1.20
2023-02-17T23:26:37.282Z,1.20
2023-02-17T23:29:05.038Z,1.15
2023-02-17T23:31:33.192Z,1.02
2023-02-17T23:34:00.205Z,1.17
2023-02-17T23:36:27.369Z,1.00
2023-02-17T23:38:56.002Z,1.00
2023-02-17T23:41:23.072Z,0.82
2023-02-17T23:43:50.033Z,0.88
2023-02-17T23:46:17.081Z,0.90
2023-02-17T23:48:43.986Z,0.90
2023-02-17T23:51:18.038Z,0.85
2023-02-17T23:53:45.697Z,0.60
2023-02-17T23:56:19.734Z,0.80
2023-02-17T23:58:47.134Z,0.70
